Time;durP1;ratioP1;P1;durP2;ratioP2;P2;SDS_P1;SDS_P2;PMS_P1;PMS_P2;Temp;Humidity;BMP_temperature;BMP_pressure;BME280_temperature;BME280_humidity;BME280_pressure;Samples;Min_cycle;Max_cycle;Signal;HPM_P1;HPM_P2
2022/06/23 00:01:50;;;;;;;2.15;1.95;;;14.10;99.90;;;;;;5019383;28;20026;-55
2022/06/23 00:04:23;;;;;;;2.05;1.95;;;14.00;99.90;;;;;;5019323;28;20492;-53
2022/06/23 00:07:11;;;;;;;1.88;1.77;;;14.00;99.90;;;;;;4999394;28;20673;-56
2022/06/23 00:09:46;;;;;;;2.30;2.08;;;13.90;99.90;;;;;;5015355;28;20464;-52
2022/06/23 00:12:35;;;;;;;2.58;2.28;;;13.90;99.90;;;;;;5004694;28;20025;-55
2022/06/23 00:15:01;;;;;;;3.75;2.25;;;13.90;99.90;;;;;;5004621;28;20547;-53
2022/06/23 00:17:31;;;;;;;2.45;2.25;;;13.90;99.90;;;;;;5022852;28;20029;-54
2022/06/23 00:20:02;;;;;;;2.40;2.20;;;13.90;99.90;;;;;;5020879;28;20022;-54
2022/06/23 00:22:32;;;;;;;2.67;2.47;;;13.80;99.90;;;;;;5022736;28;20025;-55
2022/06/23 00:25:02;;;;;;;2.97;2.63;;;13.80;99.90;;;;;;5020910;28;20033;-54
2022/06/23 00:27:36;;;;;;;2.67;2.45;;;13.80;99.90;;;;;;5005130;28;20018;-55
2022/06/23 00:30:14;;;;;;;2.40;2.20;;;13.80;99.90;;;;;;4988417;28;20024;-53
2022/06/23 00:32:39;;;;;;;2.72;2.45;;;13.80;99.90;;;;;;5022369;28;20013;-52
2022/06/23 00:35:06;;;;;;;3.00;2.70;;;13.80;99.90;;;;;;5019736;28;20047;-55
2022/06/23 00:37:32;;;;;;;2.90;2.60;;;13.70;99.90;;;;;;5004968;28;20033;-53
2022/06/23 00:40:07;;;;;;;3.05;2.85;;;13.70;99.90;;;;;;5021065;28;20026;-56
2022/06/23 00:42:49;;;;;;;2.50;2.30;;;13.70;99.90;;;;;;5000195;28;20129;-55
2022/06/23 00:45:24;;;;;;;3.00;2.70;;;13.60;99.90;;;;;;5013946;28;20025;-54
2022/06/23 00:48:10;;;;;;;3.70;2.78;;;13.60;99.90;;;;;;5026603;28;20029;-55
2022/06/23 00:50:58;;;;;;;2.90;2.60;;;13.60;99.90;;;;;;5018054;28;20045;-55
2022/06/23 00:53:39;;;;;;;3.15;2.85;;;13.60;99.90;;;;;;5012590;28;20109;-55
2022/06/23 00:56:30;;;;;;;4.38;3.33;;;13.60;99.90;;;;;;5021627;28;20047;-55
2022/06/23 00:59:10;;;;;;;3.10;2.90;;;13.50;99.90;;;;;;5019726;28;20109;-56
2022/06/23 01:01:44;;;;;;;4.35;2.78;;;13.50;99.90;;;;;;5011287;28;20203;-52
2022/06/23 01:04:24;;;;;;;3.95;3.28;;;13.40;99.90;;;;;;5022812;28;20022;-55
2022/06/23 01:07:00;;;;;;;4.00;3.70;;;13.40;99.90;;;;;;4997899;28;20033;-52
2022/06/23 01:09:32;;;;;;;;;;;13.40;99.90;;;;;;5006459;28;20041;-54
2022/06/23 01:12:03;;;;;;;3.22;2.63;;;13.40;99.90;;;;;;5018890;28;19952;-53
2022/06/23 01:14:34;;;;;;;3.10;2.85;;;13.40;99.90;;;;;;5023681;28;20535;-55
2022/06/23 01:17:15;;;;;;;3.50;3.20;;;13.30;99.90;;;;;;5020250;28;20528;-56
2022/06/23 01:20:05;;;;;;;3.10;2.90;;;13.30;99.90;;;;;;5021083;28;20022;-54
2022/06/23 01:22:49;;;;;;;3.05;2.72;;;13.20;99.90;;;;;;5003548;28;20021;-53
2022/06/23 01:25:42;;;;;;;2.92;2.72;;;13.20;99.90;;;;;;5019570;28;20076;-54
2022/06/23 01:28:15;;;;;;;3.17;2.92;;;13.20;99.90;;;;;;5019112;28;20048;-54
2022/06/23 01:31:04;;;;;;;4.00;3.70;;;13.10;99.90;;;;;;5025029;28;20036;-52
2022/06/23 01:34:01;;;;;;;3.78;3.05;;;13.10;99.90;;;;;;5014599;28;20026;-56
2022/06/23 01:36:40;;;;;;;4.32;3.92;;;13.00;99.90;;;;;;5007182;28;20099;-51
2022/06/23 01:39:06;;;;;;;4.13;3.72;;;13.00;99.90;;;;;;5019853;28;20026;-56
2022/06/23 01:41:35;;;;;;;3.88;3.40;;;13.00;99.90;;;;;;5021323;28;20025;-53
2022/06/23 01:44:13;;;;;;;4.00;3.60;;;13.00;99.90;;;;;;5001999;28;20105;-51
2022/06/23 01:46:41;;;;;;;4.78;3.90;;;13.00;99.90;;;;;;5021507;28;20071;-52
2022/06/23 01:49:26;;;;;;;5.85;4.13;;;12.90;99.90;;;;;;5019402;28;20025;-51
2022/06/23 01:51:54;;;;;;;4.72;4.13;;;12.90;99.90;;;;;;5024553;28;20041;-53
2022/06/23 01:54:19;;;;;;;4.70;4.30;;;12.90;99.90;;;;;;5017732;28;20862;-51
2022/06/23 01:56:57;;;;;;;4.22;3.72;;;12.90;99.90;;;;;;5024738;28;20049;-53
2022/06/23 01:59:53;;;;;;;5.88;4.47;;;12.90;99.90;;;;;;5013809;28;20033;-51
2022/06/23 02:02:24;;;;;;;5.10;4.17;;;12.90;99.90;;;;;;5006449;28;20045;-53
2022/06/23 02:05:03;;;;;;;5.45;4.65;;;12.80;99.90;;;;;;5018651;28;20025;-53
2022/06/23 02:07:40;;;;;;;4.93;4.47;;;12.80;99.90;;;;;;5003533;28;20037;-52
2022/06/23 02:10:26;;;;;;;5.03;3.72;;;12.80;99.90;;;;;;5019306;28;20022;-51
2022/06/23 02:13:07;;;;;;;6.60;4.90;;;12.80;99.90;;;;;;5020366;28;20051;-53
2022/06/23 02:15:51;;;;;;;4.38;3.97;;;12.70;99.90;;;;;;5021475;28;20036;-54
2022/06/23 02:18:37;;;;;;;5.57;4.13;;;12.70;99.90;;;;;;5015012;28;20026;-51
2022/06/23 02:21:18;;;;;;;4.82;4.32;;;12.70;99.90;;;;;;5023402;28;20610;-55
2022/06/23 02:24:10;;;;;;;6.18;5.03;;;12.80;99.90;;;;;;5016339;28;20392;-51
2022/06/23 02:26:59;;;;;;;9.10;6.43;;;12.80;99.90;;;;;;4999932;28;20056;-52
2022/06/23 02:29:32;;;;;;;7.22;6.47;;;12.90;99.90;;;;;;5023166;28;20496;-50
2022/06/23 02:32:14;;;;;;;9.02;6.85;;;12.90;99.90;;;;;;5017068;28;20181;-55
2022/06/23 02:35:22;;;;;;;8.32;7.50;;;12.90;99.90;;;;;;5019346;28;20028;-51
2022/06/23 02:38:08;;;;;;;8.68;7.68;;;13.00;99.90;;;;;;4982819;28;20099;-50
2022/06/23 02:40:47;;;;;;;7.88;6.75;;;13.00;99.90;;;;;;5018167;28;20021;-52
2022/06/23 02:43:25;;;;;;;11.43;8.45;;;13.00;99.90;;;;;;5022577;28;20033;-52
2022/06/23 02:46:12;;;;;;;7.70;6.72;;;13.00;99.90;;;;;;5006594;28;20562;-55
2022/06/23 02:49:02;;;;;;;7.93;7.18;;;13.00;99.90;;;;;;5003884;28;20373;-50
2022/06/23 02:51:39;;;;;;;10.05;7.50;;;13.10;99.90;;;;;;5019410;28;20029;-54
2022/06/23 02:54:11;;;;;;;7.55;6.78;;;13.00;99.90;;;;;;5022450;28;20114;-53
2022/06/23 02:57:08;;;;;;;7.20;6.50;;;13.10;99.90;;;;;;5024314;28;20025;-54
2022/06/23 02:59:46;;;;;;;11.38;8.32;;;13.10;99.90;;;;;;5002985;28;20056;-53
2022/06/23 03:02:31;;;;;;;8.80;7.78;;;13.10;99.90;;;;;;5020796;28;20022;-51
2022/06/23 03:05:03;;;;;;;8.30;7.50;;;13.10;99.90;;;;;;5021529;28;20113;-56
2022/06/23 03:07:35;;;;;;;9.38;8.38;;;13.00;99.90;;;;;;5024575;28;20030;-51
2022/06/23 03:10:10;;;;;;;9.15;8.13;;;13.00;99.90;;;;;;5022381;28;20022;-53
2022/06/23 03:12:57;;;;;;;11.23;8.05;;;13.00;99.90;;;;;;5006244;28;20025;-54
2022/06/23 03:15:40;;;;;;;10.25;8.38;;;13.00;99.90;;;;;;5011774;28;20140;-52
2022/06/23 03:18:16;;;;;;;9.13;8.13;;;13.00;99.90;;;;;;5022915;28;20434;-52
2022/06/23 03:21:31;;;;;;;9.35;8.18;;;13.00;99.90;;;;;;5024017;28;20033;-54
2022/06/23 03:24:26;;;;;;;8.73;7.80;;;13.00;99.90;;;;;;5019356;28;20041;-55
2022/06/23 03:27:01;;;;;;;8.73;7.78;;;13.00;99.90;;;;;;5018229;28;20022;-55
2022/06/23 03:29:44;;;;;;;9.13;8.10;;;13.00;99.90;;;;;;5026120;28;20480;-51
2022/06/23 03:32:16;;;;;;;8.82;7.97;;;13.00;99.90;;;;;;5022886;28;20025;-53
2022/06/23 03:34:54;;;;;;;9.35;8.20;;;13.00;99.90;;;;;;5023579;28;20547;-52
2022/06/23 03:37:42;;;;;;;9.18;8.05;;;13.00;99.90;;;;;;5012555;28;20025;-54
2022/06/23 03:43:32;;;;;;;8.23;7.32;;;13.00;99.90;;;;;;5018246;28;20107;-50
2022/06/23 03:46:29;;;;;;;10.25;8.00;;;13.00;99.90;;;;;;5027076;28;20510;-52
2022/06/23 03:49:16;;;;;;;8.30;7.43;;;13.00;99.90;;;;;;5017383;28;20065;-51
2022/06/23 03:51:52;;;;;;;7.10;6.40;;;13.00;99.90;;;;;;5023297;28;20037;-51
2022/06/23 03:54:21;;;;;;;;;;;13.00;99.90;;;;;;4995335;28;20036;-50
2022/06/23 03:56:52;;;;;;;7.60;6.65;;;13.00;99.90;;;;;;5004864;28;19908;-51
2022/06/23 03:59:34;;;;;;;7.30;6.60;;;13.10;99.90;;;;;;5013183;28;20412;-50
2022/06/23 04:02:13;;;;;;;8.15;7.35;;;13.00;99.90;;;;;;5021318;28;20025;-51
2022/06/23 04:04:52;;;;;;;7.35;6.38;;;13.10;99.90;;;;;;5024087;28;20033;-50
2022/06/23 04:07:29;;;;;;;8.05;6.82;;;13.10;99.90;;;;;;4998900;28;20077;-51
2022/06/23 04:10:06;;;;;;;8.32;6.55;;;13.10;99.90;;;;;;5026450;28;20029;-51
2022/06/23 04:12:34;;;;;;;6.68;6.07;;;13.10;99.90;;;;;;5019038;28;20026;-53
2022/06/23 04:15:08;;;;;;;7.72;6.55;;;13.10;99.90;;;;;;5026701;28;20480;-53
2022/06/23 04:17:44;;;;;;;7.25;6.55;;;13.10;99.90;;;;;;5001477;28;20037;-50
2022/06/23 04:20:18;;;;;;;7.32;6.53;;;13.20;99.90;;;;;;5021962;28;20500;-55
2022/06/23 04:23:00;;;;;;;8.10;6.93;;;13.20;99.90;;;;;;5020687;28;20509;-51
2022/06/23 04:25:40;;;;;;;7.22;6.45;;;13.30;99.90;;;;;;5010522;28;20021;-51
2022/06/23 04:28:06;;;;;;;7.28;6.57;;;13.30;99.90;;;;;;5002746;28;20026;-52
2022/06/23 04:30:37;;;;;;;7.93;6.57;;;13.30;99.90;;;;;;5022496;28;20025;-51
2022/06/23 04:33:06;;;;;;;7.13;6.35;;;13.40;99.90;;;;;;5003761;28;20022;-50
2022/06/23 04:35:36;;;;;;;7.40;5.85;;;13.40;99.90;;;;;;5005005;28;20021;-50
2022/06/23 04:38:11;;;;;;;7.10;6.40;;;13.40;99.90;;;;;;5020165;28;20022;-50
2022/06/23 04:40:55;;;;;;;7.30;5.63;;;13.50;99.90;;;;;;5004654;28;20030;-51
2022/06/23 04:43:29;;;;;;;7.35;6.57;;;13.50;99.90;;;;;;5003628;28;20115;-50
2022/06/23 04:46:00;;;;;;;8.73;6.50;;;13.60;99.90;;;;;;5020280;28;20149;-52
2022/06/23 04:48:51;;;;;;;8.73;6.60;;;13.60;99.90;;;;;;5005293;28;20544;-55
2022/06/23 04:51:29;;;;;;;6.35;5.63;;;13.70;99.90;;;;;;5010290;28;20021;-53
2022/06/23 04:54:03;;;;;;;6.72;6.00;;;13.70;99.90;;;;;;5019997;28;20034;-50
2022/06/23 04:56:38;;;;;;;7.25;6.10;;;13.80;99.90;;;;;;5022329;28;20694;-53
2022/06/23 04:59:32;;;;;;;7.72;6.35;;;13.80;99.90;;;;;;5021237;28;20053;-52
2022/06/23 05:02:03;;;;;;;8.70;6.15;;;13.90;99.90;;;;;;4977535;28;20037;-52
2022/06/23 05:04:40;;;;;;;7.45;6.20;;;14.00;99.90;;;;;;5047016;22;20112;-46
2022/06/23 05:07:19;;;;;;;7.65;5.80;;;14.00;99.90;;;;;;5041578;28;20133;-47
2022/06/23 05:09:45;;;;;;;7.22;6.00;;;14.10;99.90;;;;;;5045150;28;20368;-47
2022/06/23 05:12:27;;;;;;;6.40;5.80;;;14.20;99.90;;;;;;5038682;28;20032;-47
2022/06/23 05:15:18;;;;;;;9.10;6.28;;;14.30;99.90;;;;;;5045985;28;20426;-46
2022/06/23 05:17:53;;;;;;;7.25;5.50;;;14.30;99.90;;;;;;5037978;28;20099;-46
2022/06/23 05:20:33;;;;;;;6.43;5.50;;;14.40;99.90;;;;;;5034491;28;20024;-47
2022/06/23 05:23:01;;;;;;;6.97;5.45;;;14.50;99.90;;;;;;5037072;28;20060;-46
2022/06/23 05:25:41;;;;;;;6.07;4.97;;;14.50;99.90;;;;;;5041459;28;20036;-48
2022/06/23 05:28:21;;;;;;;6.25;5.00;;;14.70;99.90;;;;;;5039814;28;20013;-47
2022/06/23 05:30:57;;;;;;;7.05;5.45;;;14.80;99.90;;;;;;5041281;28;20017;-48
2022/06/23 05:33:32;;;;;;;6.07;5.07;;;14.90;99.90;;;;;;5031477;28;20174;-48
2022/06/23 05:36:03;;;;;;;5.45;4.45;;;15.00;99.90;;;;;;5040100;28;20021;-47
2022/06/23 05:38:55;;;;;;;8.63;5.07;;;15.10;99.90;;;;;;5041552;28;20391;-46
2022/06/23 05:41:26;;;;;;;4.38;3.97;;;15.30;99.90;;;;;;5035126;28;20396;-47
2022/06/23 05:43:54;;;;;;;4.90;3.70;;;15.50;99.90;;;;;;5044939;28;20029;-46
2022/06/23 05:46:22;;;;;;;4.10;3.80;;;15.70;99.90;;;;;;5040121;28;20395;-46
2022/06/23 05:48:57;;;;;;;4.30;3.38;;;15.80;99.90;;;;;;5045775;28;20032;-48
2022/06/23 05:51:39;;;;;;;6.43;3.33;;;16.00;99.90;;;;;;5031252;28;20654;-47
2022/06/23 05:54:13;;;;;;;4.30;3.90;;;16.10;99.90;;;;;;5038844;28;20256;-47
2022/06/23 05:56:51;;;;;;;7.30;3.50;;;16.30;99.90;;;;;;5040960;28;20040;-47
2022/06/23 05:59:44;;;;;;;3.17;2.80;;;16.50;99.90;;;;;;5030609;28;20104;-46
2022/06/23 06:02:15;;;;;;;3.35;3.05;;;16.70;99.90;;;;;;5037593;28;20468;-47
2022/06/23 06:04:49;;;;;;;5.00;3.47;;;16.90;99.90;;;;;;5042318;28;20135;-46
2022/06/23 06:07:19;;;;;;;4.55;2.70;;;17.00;99.90;;;;;;5034628;28;20017;-48
2022/06/23 06:09:45;;;;;;;3.38;3.08;;;17.20;99.90;;;;;;5042573;28;20057;-46
2022/06/23 06:12:25;;;;;;;3.40;2.83;;;17.30;99.90;;;;;;5038179;28;20392;-49
2022/06/23 06:14:58;;;;;;;3.63;2.80;;;17.40;99.90;;;;;;5044999;28;20029;-47
2022/06/23 06:17:26;;;;;;;4.60;2.80;;;17.60;99.90;;;;;;5037512;28;20034;-47
2022/06/23 06:19:54;;;;;;;4.10;2.60;;;17.80;99.90;;;;;;5038299;28;20041;-46
2022/06/23 06:22:42;;;;;;;3.65;2.42;;;17.90;99.90;;;;;;5042658;28;20603;-48
2022/06/23 06:25:29;;;;;;;4.13;2.28;;;18.00;99.90;;;;;;5037605;28;20056;-50
2022/06/23 06:28:10;;;;;;;4.30;2.53;;;18.20;99.90;;;;;;5038346;28;20060;-52
2022/06/23 06:30:39;;;;;;;3.35;2.47;;;18.30;99.90;;;;;;5040844;28;20025;-52
2022/06/23 06:33:05;;;;;;;3.08;2.22;;;18.50;99.90;;;;;;5039570;28;20014;-51
2022/06/23 06:35:41;;;;;;;3.72;2.50;;;18.70;99.90;;;;;;5040917;28;20025;-53
2022/06/23 06:38:13;;;;;;;3.58;2.70;;;18.80;99.90;;;;;;5038735;28;20036;-46
2022/06/23 06:40:42;;;;;;;3.08;2.30;;;19.00;99.90;;;;;;5044105;28;20091;-48
2022/06/23 06:43:12;;;;;;;3.53;2.20;;;19.20;99.90;;;;;;5038789;28;20026;-50
2022/06/23 06:45:39;;;;;;;5.45;2.33;;;19.30;99.90;;;;;;5040737;28;20116;-48
2022/06/23 06:48:21;;;;;;;4.97;2.60;;;19.40;99.90;;;;;;5040160;28;20021;-52
2022/06/23 06:50:55;;;;;;;5.80;2.22;;;19.60;99.90;;;;;;5033941;28;20025;-48
2022/06/23 06:53:28;;;;;;;4.10;2.40;;;19.80;99.90;;;;;;5037090;28;20427;-51
2022/06/23 06:56:04;;;;;;;5.65;2.30;;;19.90;99.90;;;;;;5038454;28;20033;-52
2022/06/23 06:58:42;;;;;;;3.75;2.55;;;20.10;99.90;;;;;;5042111;28;20022;-47
2022/06/23 07:01:13;;;;;;;4.18;2.55;;;20.20;99.90;;;;;;5039882;28;20107;-49
2022/06/23 07:03:43;;;;;;;3.05;2.05;;;20.30;99.90;;;;;;5039414;28;20031;-52
2022/06/23 07:06:15;;;;;;;4.05;2.95;;;20.50;99.90;;;;;;5039870;28;20029;-54
2022/06/23 07:09:03;;;;;;;2.83;2.30;;;20.60;99.90;;;;;;5040269;28;20156;-48
2022/06/23 07:11:58;;;;;;;2.22;2.03;;;20.80;99.90;;;;;;5042092;28;20017;-51
2022/06/23 07:14:27;;;;;;;2.30;2.10;;;21.00;99.90;;;;;;5044341;28;20059;-51
2022/06/23 07:17:05;;;;;;;2.65;2.25;;;21.10;99.90;;;;;;5043776;28;20029;-47
2022/06/23 07:19:44;;;;;;;4.43;2.45;;;21.20;99.90;;;;;;5040544;28;20030;-50
2022/06/23 07:22:26;;;;;;;4.03;2.35;;;21.40;99.90;;;;;;5045792;28;20483;-48
2022/06/23 07:25:08;;;;;;;2.45;2.08;;;21.60;99.90;;;;;;5037701;28;20033;-47
2022/06/23 07:27:53;;;;;;;4.13;2.50;;;21.90;99.90;;;;;;5044418;28;20525;-50
2022/06/23 07:30:26;;;;;;;3.25;2.35;;;22.10;99.90;;;;;;5038693;28;20024;-47
2022/06/23 07:32:57;;;;;;;4.50;2.78;;;22.30;99.90;;;;;;5043135;28;20177;-49
2022/06/23 07:36:07;;;;;;;2.33;2.10;;;22.50;99.90;;;;;;5058865;28;20069;-47
2022/06/23 07:38:48;;;;;;;4.43;2.22;;;22.70;99.90;;;;;;5039557;28;20044;-49
2022/06/23 07:41:24;;;;;;;3.85;2.35;;;22.80;99.90;;;;;;5039871;28;20032;-48
2022/06/23 07:44:13;;;;;;;4.18;2.10;;;22.90;99.90;;;;;;5046826;28;20033;-48
2022/06/23 07:46:39;;;;;;;3.55;2.67;;;23.20;99.90;;;;;;5040154;28;20100;-52
2022/06/23 07:49:06;;;;;;;2.72;2.10;;;23.40;99.90;;;;;;5048045;28;20076;-49
2022/06/23 07:51:33;;;;;;;2.88;1.98;;;23.40;99.90;;;;;;5038207;28;20064;-47
2022/06/23 07:53:59;;;;;;;2.63;2.42;;;23.60;99.90;;;;;;5041857;28;20084;-47
2022/06/23 07:56:28;;;;;;;3.50;2.10;;;23.70;99.90;;;;;;5042990;28;20021;-48
2022/06/23 07:58:58;;;;;;;3.72;2.53;;;23.90;99.90;;;;;;5042635;28;20033;-47
2022/06/23 08:02:01;;;;;;;2.47;2.20;;;24.10;99.90;;;;;;5043080;28;20055;-47
2022/06/23 08:04:46;;;;;;;3.38;2.55;;;24.40;99.90;;;;;;5035525;28;20557;-48
2022/06/23 08:07:12;;;;;;;2.90;2.33;;;24.50;99.90;;;;;;5040427;28;20106;-48
2022/06/23 08:09:56;;;;;;;1.85;1.75;;;24.60;99.90;;;;;;5045540;28;20013;-47
2022/06/23 08:18:33;;;;;;;5.82;2.10;;;25.30;99.90;;;;;;5042826;28;20113;-46
2022/06/23 08:21:08;;;;;;;2.92;2.28;;;25.60;99.90;;;;;;5040063;28;20025;-49
2022/06/23 08:23:59;;;;;;;2.50;2.00;;;25.80;99.90;;;;;;5042817;28;20107;-48
2022/06/23 08:26:26;;;;;;;2.65;2.00;;;26.00;99.90;;;;;;5036602;28;20029;-50
2022/06/23 08:28:57;;;;;;;2.72;1.88;;;26.20;99.00;;;;;;5042106;28;20483;-48
2022/06/23 08:31:23;;;;;;;4.07;2.08;;;26.30;98.10;;;;;;5042792;28;20108;-48
2022/06/23 08:33:49;;;;;;;3.95;2.35;;;26.20;97.00;;;;;;5042307;28;20096;-48
2022/06/23 08:36:19;;;;;;;2.65;2.22;;;26.20;97.10;;;;;;5039141;28;20100;-48
2022/06/23 08:38:54;;;;;;;2.55;2.35;;;26.20;97.10;;;;;;5044906;28;20491;-53
2022/06/23 08:41:22;;;;;;;1.92;1.70;;;26.20;96.50;;;;;;5035563;28;20030;-54
2022/06/23 08:44:13;;;;;;;4.18;2.10;;;26.40;96.40;;;;;;5037952;28;20025;-47
2022/06/23 08:46:57;;;;;;;2.35;1.90;;;26.40;96.60;;;;;;5035560;28;20029;-53
2022/06/23 08:49:30;;;;;;;2.65;1.95;;;26.60;96.70;;;;;;5034347;28;20055;-47
2022/06/23 08:52:17;;;;;;;2.35;1.90;;;26.80;96.30;;;;;;5040405;28;20067;-47
2022/06/23 08:55:06;;;;;;;3.10;2.13;;;27.00;95.40;;;;;;5041785;28;20029;-48
2022/06/23 08:57:34;;;;;;;2.28;1.80;;;27.00;94.00;;;;;;5037141;28;20017;-47
2022/06/23 09:00:13;;;;;;;8.13;2.20;;;27.10;94.50;;;;;;5040717;28;20052;-52
2022/06/23 09:03:14;;;;;;;4.47;2.13;;;27.10;94.80;;;;;;5033560;28;20388;-50
2022/06/23 09:05:53;;;;;;;2.50;2.00;;;27.20;93.80;;;;;;5026465;28;20061;-52
2022/06/23 09:08:33;;;;;;;6.03;1.90;;;27.20;92.40;;;;;;5035526;28;20021;-48
2022/06/23 09:11:26;;;;;;;2.83;2.33;;;27.20;91.90;;;;;;5040259;28;20040;-48
2022/06/23 09:13:54;;;;;;;2.03;1.80;;;27.20;91.60;;;;;;5046368;28;20021;-46
2022/06/23 09:16:58;;;;;;;2.40;1.95;;;27.20;91.70;;;;;;5042368;28;20475;-49
2022/06/23 09:19:39;;;;;;;4.07;1.95;;;27.20;91.40;;;;;;5034611;28;20108;-48
2022/06/23 09:22:08;;;;;;;3.22;1.98;;;27.20;91.00;;;;;;5043879;28;20039;-48
2022/06/23 09:25:06;;;;;;;7.15;2.25;;;27.30;91.90;;;;;;5037709;28;20423;-48
2022/06/23 09:28:02;;;;;;;2.22;1.88;;;27.30;91.30;;;;;;5048981;28;20022;-50
2022/06/23 09:30:46;;;;;;;3.03;1.83;;;27.30;90.20;;;;;;5030618;28;20017;-49
2022/06/23 09:33:11;;;;;;;3.17;2.00;;;27.30;90.80;;;;;;5040083;28;20441;-50
2022/06/23 09:36:14;;;;;;;1.60;1.50;;;27.20;89.90;;;;;;5041346;28;20029;-49
2022/06/23 09:39:04;;;;;;;2.75;1.67;;;27.20;90.30;;;;;;5038609;28;20447;-51
2022/06/23 09:41:30;;;;;;;5.43;2.08;;;27.10;89.90;;;;;;5036352;28;20044;-49
2022/06/23 09:44:10;;;;;;;3.10;2.17;;;27.00;88.70;;;;;;5044332;28;20029;-48
2022/06/23 09:46:57;;;;;;;2.28;1.50;;;26.90;90.10;;;;;;5039971;28;20009;-47
2022/06/23 09:49:49;;;;;;;1.80;1.65;;;27.10;90.60;;;;;;5031286;28;20021;-50
2022/06/23 09:52:27;;;;;;;3.72;2.15;;;27.30;90.40;;;;;;5038682;28;20480;-50
2022/06/23 09:55:02;;;;;;;2.50;1.95;;;27.40;89.70;;;;;;5040511;28;20040;-49
2022/06/23 09:57:30;;;;;;;2.40;1.90;;;27.50;89.60;;;;;;5036212;28;20025;-51
2022/06/23 10:00:04;;;;;;;2.13;1.73;;;27.60;87.80;;;;;;5040404;28;20422;-48
2022/06/23 10:02:58;;;;;;;2.28;2.00;;;27.60;90.20;;;;;;5037567;28;20029;-48
2022/06/23 10:05:51;;;;;;;2.90;1.80;;;27.70;89.10;;;;;;5036641;28;20090;-48
2022/06/23 10:08:19;;;;;;;3.00;2.17;;;27.70;87.60;;;;;;5026833;28;20025;-50
2022/06/23 10:11:13;;;;;;;2.50;1.90;;;27.70;88.00;;;;;;5040258;28;20039;-50
2022/06/23 10:13:52;;;;;;;4.97;2.28;;;27.60;87.10;;;;;;5033276;28;20056;-46
2022/06/23 10:17:02;;;;;;;2.45;2.03;;;27.60;87.20;;;;;;5053667;28;20024;-49
2022/06/23 10:19:43;;;;;;;2.88;2.00;;;27.50;88.00;;;;;;5014400;28;20088;-52
2022/06/23 10:22:24;;;;;;;2.35;1.88;;;27.50;85.50;;;;;;5021236;28;20045;-49
2022/06/23 10:25:26;;;;;;;2.67;2.05;;;27.40;88.10;;;;;;5031111;28;20098;-50
2022/06/23 10:28:19;;;;;;;2.50;1.92;;;27.40;87.40;;;;;;5039449;28;20112;-47
2022/06/23 10:30:51;;;;;;;3.20;1.80;;;27.40;87.70;;;;;;5039091;28;20021;-49
2022/06/23 10:33:55;;;;;;;2.72;1.98;;;27.40;86.70;;;;;;5044918;28;20025;-49
2022/06/23 10:36:40;;;;;;;2.78;1.90;;;27.50;84.20;;;;;;5034593;28;20108;-48
2022/06/23 10:39:30;;;;;;;3.22;2.10;;;27.40;84.00;;;;;;5043229;28;20021;-50
2022/06/23 10:41:59;;;;;;;1.83;1.73;;;27.40;85.70;;;;;;5035417;28;20026;-48
2022/06/23 10:44:55;;;;;;;5.07;2.00;;;27.50;85.40;;;;;;5044354;28;20609;-49
2022/06/23 10:47:27;;;;;;;3.05;2.03;;;27.50;85.90;;;;;;5032479;28;20490;-47
2022/06/23 10:50:17;;;;;;;3.45;2.38;;;27.40;82.40;;;;;;5043985;28;20017;-48
2022/06/23 10:53:02;;;;;;;3.42;2.20;;;27.30;82.80;;;;;;5044298;28;20017;-49
2022/06/23 10:55:52;;;;;;;2.80;2.03;;;27.20;82.60;;;;;;5038712;28;20431;-48
2022/06/23 10:58:50;;;;;;;1.83;1.73;;;27.10;83.60;;;;;;5034021;28;20049;-49
2022/06/23 11:01:25;;;;;;;2.67;1.85;;;27.20;84.50;;;;;;5023849;28;20087;-53
2022/06/23 11:04:15;;;;;;;2.35;1.73;;;27.30;81.20;;;;;;5044219;28;20037;-53
2022/06/23 11:07:06;;;;;;;2.17;1.95;;;27.30;79.90;;;;;;5214847;22;20443;-52
2022/06/23 11:09:44;;;;;;;2.58;2.00;;;27.30;79.70;;;;;;5055469;28;20044;-50
2022/06/23 11:12:33;;;;;;;3.65;1.95;;;27.40;81.40;;;;;;5062936;28;20035;-51
2022/06/23 11:15:22;;;;;;;2.42;2.15;;;27.50;81.00;;;;;;5062412;28;20036;-54
2022/06/23 11:18:20;;;;;;;4.72;2.05;;;27.50;80.30;;;;;;5063438;28;20034;-50
2022/06/23 11:21:32;;;;;;;3.42;2.05;;;27.60;78.70;;;;;;5061162;28;20100;-52
2022/06/23 11:24:21;;;;;;;3.00;1.92;;;27.50;77.90;;;;;;5040566;28;20447;-50
2022/06/23 11:27:12;;;;;;;2.10;1.90;;;27.60;79.20;;;;;;5061922;28;20108;-50
2022/06/23 11:30:20;;;;;;;3.13;2.40;;;27.60;79.20;;;;;;5054011;28;20454;-51
2022/06/23 11:32:46;;;;;;;2.03;1.90;;;27.60;77.80;;;;;;5061901;28;20017;-50
2022/06/23 11:35:30;;;;;;;5.13;2.67;;;27.60;79.00;;;;;;5063319;28;20442;-50
2022/06/23 11:38:13;;;;;;;4.40;2.38;;;27.80;78.30;;;;;;5062887;28;20032;-53
2022/06/23 11:40:46;;;;;;;2.58;1.77;;;27.80;75.80;;;;;;5055645;28;20055;-51
2022/06/23 11:43:18;;;;;;;1.92;1.80;;;27.90;77.90;;;;;;5066004;28;20025;-55
2022/06/23 11:46:22;;;;;;;2.10;1.65;;;27.90;78.00;;;;;;5055830;28;20035;-52
2022/06/23 11:49:14;;;;;;;2.00;1.80;;;27.90;76.90;;;;;;5055984;28;20076;-53
2022/06/23 11:52:04;;;;;;;2.03;1.92;;;28.00;76.40;;;;;;5054516;28;20413;-50
2022/06/23 11:54:56;;;;;;;2.08;1.90;;;28.00;75.00;;;;;;5063154;28;20458;-52
2022/06/23 11:57:43;;;;;;;3.03;2.30;;;27.90;76.60;;;;;;5062469;28;20031;-49
2022/06/23 12:00:16;;;;;;;2.22;2.03;;;27.90;77.40;;;;;;5059306;28;20070;-53
2022/06/23 12:02:47;;;;;;;2.85;2.15;;;28.00;76.80;;;;;;5057524;28;20028;-52
2022/06/23 12:05:25;;;;;;;1.73;1.60;;;28.00;75.20;;;;;;5065301;28;20419;-53
2022/06/23 12:08:27;;;;;;;4.00;2.20;;;28.10;75.90;;;;;;5056469;28;20029;-52
2022/06/23 12:10:53;;;;;;;3.40;2.00;;;28.20;74.90;;;;;;5061570;28;20359;-49
2022/06/23 12:13:20;;;;;;;3.20;1.90;;;28.30;74.30;;;;;;5062740;28;20032;-55
2022/06/23 12:15:50;;;;;;;2.63;2.20;;;28.20;70.70;;;;;;5062448;28;20035;-51
2022/06/23 12:18:25;;;;;;;3.90;2.33;;;28.20;71.60;;;;;;5049483;28;20081;-50
2022/06/23 12:21:02;;;;;;;2.10;1.75;;;28.30;73.20;;;;;;5060125;28;20073;-53
2022/06/23 12:23:48;;;;;;;1.70;1.60;;;28.30;70.60;;;;;;5062405;28;20029;-55
2022/06/23 12:26:43;;;;;;;2.30;2.10;;;28.40;68.00;;;;;;5060929;28;20021;-53
2022/06/23 12:29:25;;;;;;;2.85;1.70;;;28.60;69.60;;;;;;5059276;28;20423;-53
2022/06/23 12:32:00;;;;;;;2.20;2.00;;;28.60;67.60;;;;;;5066336;28;20063;-55
2022/06/23 12:34:40;;;;;;;1.88;1.70;;;28.80;67.80;;;;;;5058668;28;20021;-51
2022/06/23 12:37:46;;;;;;;1.70;1.60;;;28.80;69.00;;;;;;5060983;28;20071;-52
2022/06/23 12:40:36;;;;;;;1.70;1.60;;;28.90;68.20;;;;;;5061466;28;20210;-55
2022/06/23 12:43:12;;;;;;;2.33;1.67;;;29.10;66.90;;;;;;5060314;28;20048;-51
2022/06/23 12:45:49;;;;;;;4.32;1.90;;;29.10;66.50;;;;;;5062332;28;20128;-49
2022/06/23 12:48:26;;;;;;;2.45;1.90;;;29.10;66.60;;;;;;5059817;28;20031;-49
2022/06/23 12:51:13;;;;;;;3.90;1.70;;;29.20;66.50;;;;;;5054513;28;20656;-55
2022/06/23 12:53:48;;;;;;;3.20;1.85;;;29.40;65.40;;;;;;5061555;28;20025;-52
2022/06/23 12:56:25;;;;;;;3.60;1.92;;;29.60;64.80;;;;;;5061967;28;20017;-51
2022/06/23 12:59:01;;;;;;;1.77;1.23;;;29.60;65.20;;;;;;5060936;28;20044;-52
2022/06/23 13:01:38;;;;;;;1.98;1.88;;;29.50;65.80;;;;;;5061695;28;20013;-51
2022/06/23 13:04:20;;;;;;;2.83;1.60;;;29.30;64.70;;;;;;5059205;28;20088;-50
2022/06/23 13:06:50;;;;;;;2.65;1.95;;;29.60;65.80;;;;;;5061072;28;20031;-50
2022/06/23 13:09:28;;;;;;;5.30;2.17;;;29.80;66.70;;;;;;5059204;28;20055;-50
2022/06/23 13:11:56;;;;;;;3.80;2.03;;;30.00;64.40;;;;;;5060835;28;20019;-50
2022/06/23 13:14:25;;;;;;;4.35;2.03;;;30.10;62.80;;;;;;5061870;28;20025;-51
2022/06/23 13:17:07;;;;;;;1.40;1.30;;;30.20;61.60;;;;;;5061323;28;20040;-51
2022/06/23 13:19:44;;;;;;;2.33;1.90;;;30.20;63.40;;;;;;5058087;28;20074;-53
2022/06/23 13:22:10;;;;;;;1.88;1.60;;;30.20;63.00;;;;;;5064226;28;20051;-51
2022/06/23 13:24:42;;;;;;;1.75;1.65;;;30.30;62.70;;;;;;5056412;28;20025;-50
2022/06/23 13:27:19;;;;;;;2.42;1.40;;;30.40;62.70;;;;;;5064686;28;20028;-52
2022/06/23 13:30:06;;;;;;;1.95;1.80;;;30.50;62.70;;;;;;5057846;28;20033;-50
2022/06/23 13:32:37;;;;;;;1.52;1.40;;;30.70;63.10;;;;;;5053596;28;20024;-48
2022/06/23 13:35:09;;;;;;;2.10;1.80;;;30.80;61.90;;;;;;5059548;28;20032;-49
2022/06/23 13:37:56;;;;;;;1.85;1.67;;;30.90;62.30;;;;;;5061001;28;20032;-48
2022/06/23 13:40:50;;;;;;;1.90;1.50;;;30.90;60.60;;;;;;5050648;28;20027;-50
2022/06/23 13:43:27;;;;;;;6.05;1.70;;;31.10;61.10;;;;;;5058880;28;20437;-53
2022/06/23 13:46:05;;;;;;;8.18;1.90;;;31.00;60.00;;;;;;5059112;28;20111;-49
2022/06/23 13:48:37;;;;;;;1.70;1.60;;;31.10;60.10;;;;;;5056079;28;20132;-54
2022/06/23 13:51:14;;;;;;;4.65;1.98;;;31.10;58.90;;;;;;5053644;28;20120;-49
2022/06/23 13:53:49;;;;;;;1.80;1.70;;;31.30;58.70;;;;;;5060830;28;21065;-52
2022/06/23 13:56:21;;;;;;;10.75;2.33;;;31.20;59.40;;;;;;5047021;28;20009;-53
2022/06/23 13:58:58;;;;;;;4.70;2.15;;;31.20;58.10;;;;;;5059270;28;20028;-54
2022/06/23 14:01:47;;;;;;;2.92;1.75;;;31.30;61.40;;;;;;5049525;28;20029;-53